Time;durP1;ratioP1;P1;durP2;ratioP2;P2;SDS_P1;SDS_P2;PMS_P1;PMS_P2;Temp;Humidity;BMP_temperature;BMP_pressure;BME280_temperature;BME280_humidity;BME280_pressure;Samples;Min_cycle;Max_cycle;Signal;HPM_P1;HPM_P2
2023/09/15 00:01:14;;;;;;;2.22;0.50;;;11.20;99.90;;;;;;5089826;28;20068;-71
2023/09/15 00:03:40;;;;;;;1.10;0.20;;;11.20;99.90;;;;;;5051209;28;20123;-72
2023/09/15 00:06:06;;;;;;;0.10;0.10;;;11.20;99.90;;;;;;5055546;28;20116;-71
2023/09/15 00:08:33;;;;;;;0.32;0.15;;;11.20;99.90;;;;;;5057074;28;20536;-72
2023/09/15 00:10:59;;;;;;;0.10;0.10;;;11.20;99.90;;;;;;5053259;28;20518;-71
2023/09/15 00:13:25;;;;;;;0.68;0.32;;;11.20;99.90;;;;;;5055410;28;20037;-71
2023/09/15 00:15:51;;;;;;;0.22;0.10;;;11.20;99.90;;;;;;5056613;28;20033;-71
2023/09/15 00:18:20;;;;;;;0.17;0.08;;;11.20;99.90;;;;;;5055762;28;20385;-72
2023/09/15 00:20:46;;;;;;;0.38;0.20;;;11.10;99.90;;;;;;5056254;28;20064;-71
2023/09/15 00:23:12;;;;;;;0.45;0.28;;;11.10;99.90;;;;;;5064029;28;20113;-71
2023/09/15 00:25:37;;;;;;;0.35;0.15;;;11.10;99.90;;;;;;5054235;28;20093;-71
2023/09/15 00:28:04;;;;;;;0.00;0.00;;;11.10;99.90;;;;;;5054803;28;20634;-72
2023/09/15 00:30:30;;;;;;;1.58;0.40;;;11.10;99.90;;;;;;5053020;28;20041;-71
2023/09/15 00:32:56;;;;;;;0.63;0.20;;;11.00;99.90;;;;;;5057877;28;20116;-71
2023/09/15 00:35:26;;;;;;;0.50;0.20;;;11.00;99.90;;;;;;5051709;28;20599;-71
2023/09/15 00:37:55;;;;;;;0.45;0.10;;;11.00;99.90;;;;;;5052202;28;20447;-71
2023/09/15 00:40:22;;;;;;;0.40;0.10;;;11.00;99.90;;;;;;5064510;28;20036;-71
2023/09/15 00:42:49;;;;;;;0.45;0.00;;;11.00;99.90;;;;;;5077854;28;20101;-71
2023/09/15 00:45:19;;;;;;;0.10;0.10;;;10.90;99.90;;;;;;5063697;28;20123;-72
2023/09/15 00:47:48;;;;;;;0.10;0.00;;;10.90;99.90;;;;;;5060957;28;20106;-72
2023/09/15 00:50:16;;;;;;;0.10;0.10;;;10.90;99.90;;;;;;5058413;28;20123;-71
2023/09/15 00:52:51;;;;;;;3.60;0.30;;;10.90;99.90;;;;;;5057637;28;20485;-72
2023/09/15 00:55:21;;;;;;;0.65;0.00;;;10.80;99.90;;;;;;5057441;28;20411;-71
2023/09/15 00:57:51;;;;;;;0.10;0.00;;;10.90;99.90;;;;;;5072051;28;20056;-71
2023/09/15 01:00:19;;;;;;;0.43;0.20;;;10.90;99.90;;;;;;5061184;28;20048;-72
2023/09/15 01:02:46;;;;;;;1.55;0.20;;;10.80;99.90;;;;;;5071990;28;20037;-71
2023/09/15 01:05:19;;;;;;;0.40;0.10;;;10.80;99.90;;;;;;5056984;28;20037;-71
2023/09/15 01:07:50;;;;;;;0.08;0.08;;;10.80;99.90;;;;;;5056095;28;20040;-71
2023/09/15 01:10:16;;;;;;;0.25;0.10;;;10.90;99.90;;;;;;5053960;28;20045;-71
2023/09/15 01:12:43;;;;;;;0.73;0.15;;;10.90;99.90;;;;;;5055401;28;20047;-71
2023/09/15 01:15:09;;;;;;;0.00;0.00;;;10.80;99.90;;;;;;5044664;28;20071;-71
2023/09/15 01:17:56;;;;;;;0.88;0.05;;;10.80;99.90;;;;;;5057531;28;20063;-71
2023/09/15 01:20:49;;;;;;;0.13;0.10;;;10.80;99.90;;;;;;5056107;28;20508;-71
2023/09/15 01:23:28;;;;;;;0.20;0.10;;;10.80;99.90;;;;;;5061473;28;20059;-71
2023/09/15 01:26:13;;;;;;;0.35;0.10;;;10.80;99.90;;;;;;5060217;28;20049;-71
2023/09/15 01:29:09;;;;;;;0.75;0.10;;;10.70;99.90;;;;;;5057914;28;20394;-71
2023/09/15 01:31:37;;;;;;;0.10;0.00;;;10.70;99.90;;;;;;5060403;28;20471;-71
2023/09/15 01:34:03;;;;;;;0.20;0.10;;;10.70;99.90;;;;;;5057868;28;20056;-71
2023/09/15 01:36:28;;;;;;;0.10;0.10;;;10.70;99.90;;;;;;5056790;28;20048;-71
2023/09/15 01:38:54;;;;;;;0.00;0.00;;;10.70;99.90;;;;;;5053597;28;20098;-69
2023/09/15 01:41:20;;;;;;;1.23;0.15;;;10.70;99.90;;;;;;5059333;28;20119;-71
2023/09/15 01:43:46;;;;;;;0.05;0.03;;;10.60;99.90;;;;;;5059514;28;20129;-70
2023/09/15 01:46:11;;;;;;;2.80;0.13;;;10.60;99.90;;;;;;5056991;28;20052;-70
2023/09/15 01:48:38;;;;;;;0.00;0.00;;;10.60;99.90;;;;;;5058181;28;20075;-70
2023/09/15 01:51:04;;;;;;;0.52;0.10;;;10.60;99.90;;;;;;5088806;28;20033;-70
2023/09/15 01:53:31;;;;;;;4.50;0.10;;;10.60;99.90;;;;;;5059556;28;20041;-70
2023/09/15 01:55:57;;;;;;;0.22;0.10;;;10.50;99.90;;;;;;5053357;28;20412;-70
2023/09/15 01:58:23;;;;;;;0.10;0.10;;;10.50;99.90;;;;;;5090096;28;20047;-70
2023/09/15 02:00:51;;;;;;;0.40;0.10;;;10.50;99.90;;;;;;5057584;28;20056;-70
2023/09/15 02:03:17;;;;;;;0.20;0.05;;;10.60;99.90;;;;;;5059251;28;20036;-70
2023/09/15 02:05:43;;;;;;;0.35;0.20;;;10.50;99.90;;;;;;5053243;28;20046;-70
2023/09/15 02:08:09;;;;;;;0.00;0.00;;;10.50;99.90;;;;;;5062229;28;20106;-70
2023/09/15 02:10:35;;;;;;;0.10;0.10;;;10.50;99.90;;;;;;5041375;28;20116;-70
2023/09/15 02:13:00;;;;;;;0.50;0.35;;;10.50;99.90;;;;;;5045065;28;20524;-70
2023/09/15 02:15:26;;;;;;;0.15;0.00;;;10.40;99.90;;;;;;5053398;28;20068;-71
2023/09/15 02:17:52;;;;;;;0.10;0.10;;;10.50;99.90;;;;;;5060173;28;20127;-71
2023/09/15 02:20:18;;;;;;;2.85;0.20;;;10.40;99.90;;;;;;5056166;28;20036;-71
2023/09/15 02:22:44;;;;;;;0.80;0.17;;;10.40;99.90;;;;;;5043839;28;20488;-71
2023/09/15 02:25:11;;;;;;;0.22;0.10;;;10.40;99.90;;;;;;5060180;28;20424;-71
2023/09/15 02:27:37;;;;;;;0.90;0.10;;;10.40;99.90;;;;;;5056356;28;20120;-70
2023/09/15 02:30:07;;;;;;;0.65;0.22;;;10.40;99.90;;;;;;5075295;28;20536;-71
2023/09/15 02:32:33;;;;;;;0.43;0.10;;;10.40;99.90;;;;;;5040146;28;20063;-70
2023/09/15 02:34:59;;;;;;;0.75;0.32;;;10.40;99.90;;;;;;5055976;28;20052;-71
2023/09/15 02:37:24;;;;;;;0.47;0.10;;;10.30;99.90;;;;;;5055658;28;20504;-71
2023/09/15 02:39:50;;;;;;;0.25;0.20;;;10.40;99.90;;;;;;5062851;28;20044;-70
2023/09/15 02:42:16;;;;;;;0.00;0.00;;;10.30;99.90;;;;;;5055699;28;20378;-71
2023/09/15 02:44:45;;;;;;;0.00;0.00;;;10.30;99.90;;;;;;5058748;28;20056;-70
2023/09/15 02:47:12;;;;;;;0.40;0.20;;;10.30;99.90;;;;;;5086674;28;20041;-70
2023/09/15 02:49:38;;;;;;;0.28;0.10;;;10.30;99.90;;;;;;5057974;28;20478;-71
2023/09/15 02:52:05;;;;;;;0.30;0.10;;;10.20;99.90;;;;;;5055353;28;20531;-71
2023/09/15 02:54:30;;;;;;;0.10;0.10;;;10.20;99.90;;;;;;5058190;28;20036;-71
2023/09/15 02:56:56;;;;;;;0.22;0.03;;;10.20;99.90;;;;;;5054060;28;20053;-71
2023/09/15 02:59:22;;;;;;;0.20;0.10;;;10.20;99.90;;;;;;5091226;28;20052;-71
2023/09/15 03:01:47;;;;;;;0.10;0.00;;;10.20;99.90;;;;;;5058094;28;20128;-71
2023/09/15 03:04:13;;;;;;;0.00;0.00;;;10.20;99.90;;;;;;5059909;28;20036;-70
2023/09/15 03:06:39;;;;;;;0.13;0.03;;;10.20;99.90;;;;;;5055519;28;20036;-70
2023/09/15 03:09:09;;;;;;;0.10;0.05;;;10.10;99.90;;;;;;5088221;28;20037;-70
2023/09/15 03:11:35;;;;;;;0.10;0.10;;;10.20;99.90;;;;;;5040570;28;20059;-70
2023/09/15 03:14:01;;;;;;;0.52;0.45;;;10.10;99.90;;;;;;5059657;28;20127;-70
2023/09/15 03:16:26;;;;;;;0.10;0.10;;;10.10;99.90;;;;;;5057219;28;20132;-70
2023/09/15 03:18:52;;;;;;;0.10;0.05;;;10.10;99.90;;;;;;5053890;28;20071;-70
2023/09/15 03:21:19;;;;;;;0.82;0.30;;;10.10;99.90;;;;;;5050078;28;20068;-71
2023/09/15 03:23:47;;;;;;;0.20;0.10;;;10.10;99.90;;;;;;5055626;28;20102;-71
2023/09/15 03:26:13;;;;;;;0.03;0.00;;;10.00;99.90;;;;;;5090039;28;20036;-70
2023/09/15 03:28:39;;;;;;;0.10;0.10;;;10.00;99.90;;;;;;5057263;28;20377;-71
2023/09/15 03:31:04;;;;;;;0.70;0.10;;;10.00;99.90;;;;;;5058308;28;20028;-70
2023/09/15 03:33:30;;;;;;;0.15;0.10;;;10.00;99.90;;;;;;5089710;28;20094;-70
2023/09/15 03:35:57;;;;;;;0.00;0.00;;;10.00;99.90;;;;;;5056196;28;20483;-70
2023/09/15 03:38:23;;;;;;;0.00;0.00;;;10.00;99.90;;;;;;5053744;28;20041;-70
2023/09/15 03:40:48;;;;;;;0.80;0.10;;;9.90;99.90;;;;;;5055978;28;20040;-71
2023/09/15 03:43:14;;;;;;;0.10;0.10;;;9.90;99.90;;;;;;5039261;28;20781;-71
2023/09/15 03:45:43;;;;;;;0.05;0.03;;;10.00;99.90;;;;;;5057188;28;20432;-70
2023/09/15 03:48:09;;;;;;;0.00;0.00;;;9.90;99.90;;;;;;5053848;28;20041;-70
2023/09/15 03:50:35;;;;;;;0.57;0.25;;;9.90;99.90;;;;;;5056041;28;20065;-70
2023/09/15 03:53:00;;;;;;;1.17;0.10;;;9.90;99.90;;;;;;5051553;28;20080;-70
2023/09/15 03:55:26;;;;;;;0.65;0.15;;;9.80;99.90;;;;;;5053358;28;20040;-70
2023/09/15 03:57:52;;;;;;;0.05;0.00;;;9.80;99.90;;;;;;5065397;28;20057;-71
2023/09/15 04:00:19;;;;;;;0.00;0.00;;;9.80;99.90;;;;;;5089411;28;20037;-71
2023/09/15 04:02:45;;;;;;;0.80;0.28;;;9.80;99.90;;;;;;5040575;28;20036;-71
2023/09/15 04:05:11;;;;;;;0.25;0.10;;;9.80;99.90;;;;;;5052162;28;20125;-71
2023/09/15 04:07:37;;;;;;;0.00;0.00;;;9.70;99.90;;;;;;5087852;28;20048;-71
2023/09/15 04:10:05;;;;;;;0.38;0.00;;;9.70;99.90;;;;;;5054140;28;20043;-71
2023/09/15 04:12:32;;;;;;;0.65;0.20;;;9.70;99.90;;;;;;5062292;28;20119;-70
2023/09/15 04:14:59;;;;;;;0.50;0.15;;;9.70;99.90;;;;;;5056905;28;20123;-71
2023/09/15 04:17:24;;;;;;;0.20;0.05;;;9.70;99.90;;;;;;5058993;28;20041;-70
2023/09/15 04:19:50;;;;;;;0.20;0.10;;;9.60;99.90;;;;;;5061624;28;20033;-71
2023/09/15 04:22:16;;;;;;;0.45;0.35;;;9.60;99.90;;;;;;5095172;28;20503;-70
2023/09/15 04:24:41;;;;;;;0.25;0.13;;;9.60;99.90;;;;;;5060702;28;20232;-71
2023/09/15 04:27:07;;;;;;;0.52;0.10;;;9.60;99.90;;;;;;5059776;28;20476;-70
2023/09/15 04:29:33;;;;;;;0.20;0.15;;;9.50;99.90;;;;;;5058874;28;20040;-70
2023/09/15 04:31:59;;;;;;;0.50;0.30;;;9.50;99.90;;;;;;5055547;28;20047;-70
2023/09/15 04:34:25;;;;;;;0.30;0.10;;;9.50;99.90;;;;;;5057700;28;20036;-70
2023/09/15 04:36:50;;;;;;;0.50;0.30;;;9.50;99.90;;;;;;5055529;28;20126;-69
2023/09/15 04:39:16;;;;;;;0.47;0.10;;;9.50;99.90;;;;;;5056479;28;20511;-71
2023/09/15 04:41:42;;;;;;;0.00;0.00;;;9.50;99.90;;;;;;5063577;28;20488;-71
2023/09/15 04:44:09;;;;;;;0.30;0.20;;;9.50;99.90;;;;;;5063804;28;20037;-71
2023/09/15 04:46:34;;;;;;;0.17;0.13;;;9.40;99.90;;;;;;5056247;28;20052;-71
2023/09/15 04:49:00;;;;;;;0.00;0.00;;;9.40;99.90;;;;;;5063522;28;20404;-71
2023/09/15 04:51:26;;;;;;;1.08;0.30;;;9.40;99.90;;;;;;5053909;28;20404;-70
2023/09/15 04:53:52;;;;;;;0.43;0.25;;;9.40;99.90;;;;;;5060595;28;20083;-71
2023/09/15 04:56:17;;;;;;;0.08;0.08;;;9.40;99.90;;;;;;5055815;28;20074;-70
2023/09/15 04:58:45;;;;;;;0.15;0.03;;;9.50;99.90;;;;;;5045670;28;20072;-71
2023/09/15 05:01:16;;;;;;;0.40;0.40;;;9.40;99.90;;;;;;5056117;28;20033;-71
2023/09/15 05:03:44;;;;;;;0.13;0.13;;;9.40;99.90;;;;;;5059875;28;20036;-70
2023/09/15 05:06:09;;;;;;;0.22;0.20;;;9.40;99.90;;;;;;5058886;28;20044;-70
2023/09/15 05:08:35;;;;;;;0.20;0.20;;;9.40;99.90;;;;;;5061272;28;20041;-70
2023/09/15 05:11:01;;;;;;;0.15;0.00;;;9.40;99.90;;;;;;5042875;28;20041;-70
2023/09/15 05:13:26;;;;;;;0.45;0.20;;;9.40;99.90;;;;;;5057498;28;20049;-70
2023/09/15 05:15:52;;;;;;;0.63;0.20;;;9.40;99.90;;;;;;5058632;28;20032;-71
2023/09/15 05:18:18;;;;;;;0.20;0.10;;;9.40;99.90;;;;;;5043476;28;20388;-70
2023/09/15 05:20:44;;;;;;;1.45;0.22;;;9.30;99.90;;;;;;5086299;28;20123;-70
2023/09/15 05:23:09;;;;;;;0.43;0.20;;;9.40;99.90;;;;;;5091777;28;20040;-70
2023/09/15 05:25:35;;;;;;;0.00;0.00;;;9.40;99.90;;;;;;5055315;28;20041;-70
2023/09/15 05:28:01;;;;;;;0.20;0.00;;;9.40;99.90;;;;;;5093021;28;20144;-70
2023/09/15 05:30:29;;;;;;;0.03;0.03;;;9.40;99.90;;;;;;5057105;28;20045;-70
2023/09/15 05:32:55;;;;;;;0.20;0.15;;;9.40;99.90;;;;;;5054932;28;20060;-70
2023/09/15 05:35:21;;;;;;;0.17;0.05;;;9.40;99.90;;;;;;5088420;28;20129;-71
2023/09/15 05:37:47;;;;;;;0.10;0.10;;;9.40;99.90;;;;;;5054705;28;20071;-70
2023/09/15 05:40:13;;;;;;;0.25;0.20;;;9.40;99.90;;;;;;5055953;28;20129;-70
2023/09/15 05:42:39;;;;;;;0.00;0.00;;;9.40;99.90;;;;;;5088645;28;20417;-70
2023/09/15 05:45:05;;;;;;;0.10;0.00;;;9.50;99.90;;;;;;5092202;27;20053;-70
2023/09/15 05:47:33;;;;;;;0.20;0.00;;;9.50;99.90;;;;;;5053535;28;20048;-70
2023/09/15 05:50:00;;;;;;;0.20;0.13;;;9.50;99.90;;;;;;5056688;28;20145;-70
2023/09/15 05:52:26;;;;;;;0.45;0.20;;;9.50;99.90;;;;;;5055862;28;20105;-70
2023/09/15 05:54:52;;;;;;;0.30;0.13;;;9.60;99.90;;;;;;5051365;28;20128;-70
2023/09/15 05:57:17;;;;;;;0.17;0.10;;;9.60;99.90;;;;;;5060764;28;20123;-70
2023/09/15 05:59:43;;;;;;;0.75;0.20;;;9.70;99.90;;;;;;5060233;28;20045;-71
2023/09/15 06:02:09;;;;;;;0.55;0.20;;;9.80;99.90;;;;;;5062591;28;20100;-70
2023/09/15 06:04:34;;;;;;;1.48;0.55;;;9.80;99.90;;;;;;5054693;28;20048;-70
2023/09/15 06:07:00;;;;;;;0.10;0.10;;;9.90;99.90;;;;;;5052894;28;20049;-70
2023/09/15 06:09:26;;;;;;;0.45;0.20;;;9.90;99.90;;;;;;5056147;28;20048;-70
2023/09/15 06:11:52;;;;;;;0.55;0.15;;;10.00;99.90;;;;;;5044362;28;20480;-70
2023/09/15 06:14:18;;;;;;;1.95;0.82;;;10.10;99.90;;;;;;5054593;28;20029;-71
2023/09/15 06:16:43;;;;;;;0.28;0.10;;;10.10;99.90;;;;;;5061743;28;20133;-71
2023/09/15 06:19:09;;;;;;;8.15;0.40;;;10.20;99.90;;;;;;5055912;28;20037;-71
2023/09/15 06:21:35;;;;;;;2.42;0.20;;;10.30;99.90;;;;;;5058440;28;20072;-71
2023/09/15 06:24:01;;;;;;;1.00;0.30;;;10.40;99.90;;;;;;5059454;28;20091;-71
2023/09/15 06:26:26;;;;;;;0.15;0.10;;;10.50;99.90;;;;;;5054984;28;20552;-70
2023/09/15 06:28:52;;;;;;;0.73;0.30;;;10.60;99.90;;;;;;5056121;28;20033;-70
2023/09/15 06:31:19;;;;;;;0.35;0.25;;;10.70;99.90;;;;;;5062384;28;20040;-71
2023/09/15 06:33:45;;;;;;;0.35;0.30;;;10.80;99.90;;;;;;5058962;28;20036;-71
2023/09/15 06:36:11;;;;;;;0.00;0.00;;;10.90;99.90;;;;;;5061075;28;20391;-70
2023/09/15 06:38:36;;;;;;;0.00;0.00;;;11.00;99.90;;;;;;5058622;28;20033;-70
2023/09/15 06:41:03;;;;;;;0.17;0.17;;;11.10;99.90;;;;;;5090202;28;20040;-70
2023/09/15 06:43:28;;;;;;;0.75;0.10;;;11.20;99.90;;;;;;5059201;28;20036;-70
2023/09/15 06:45:54;;;;;;;0.30;0.20;;;11.30;99.90;;;;;;5060624;28;20557;-70
2023/09/15 06:48:20;;;;;;;0.93;0.43;;;11.40;99.90;;;;;;5060448;28;20037;-70
2023/09/15 06:50:46;;;;;;;0.80;0.10;;;11.60;99.90;;;;;;5053518;28;20393;-70
2023/09/15 06:53:11;;;;;;;0.63;0.28;;;11.60;99.90;;;;;;5093314;28;20123;-71
2023/09/15 06:55:37;;;;;;;0.28;0.28;;;11.80;99.90;;;;;;5091727;28;20374;-70
2023/09/15 06:58:03;;;;;;;0.47;0.30;;;11.80;99.90;;;;;;5062939;28;20060;-70
2023/09/15 07:00:29;;;;;;;1.33;0.20;;;12.00;99.90;;;;;;5058309;28;20056;-70
2023/09/15 07:02:54;;;;;;;0.40;0.15;;;12.10;99.90;;;;;;5057976;28;20075;-70
2023/09/15 07:05:20;;;;;;;0.20;0.20;;;12.20;99.90;;;;;;5090219;28;20113;-70
2023/09/15 07:07:46;;;;;;;0.35;0.20;;;12.40;99.90;;;;;;5058027;28;20037;-70
2023/09/15 07:10:11;;;;;;;1.20;0.30;;;12.50;99.90;;;;;;5058087;28;20495;-70
2023/09/15 07:12:37;;;;;;;1.00;0.40;;;12.70;99.90;;;;;;5060146;28;20071;-70
2023/09/15 07:15:05;;;;;;;0.55;0.30;;;12.70;99.90;;;;;;5054098;28;20094;-70
2023/09/15 07:17:30;;;;;;;0.93;0.40;;;12.90;99.90;;;;;;5064095;28;20041;-70
2023/09/15 07:19:56;;;;;;;1.60;0.30;;;13.00;99.90;;;;;;5055553;28;20102;-70
2023/09/15 07:22:22;;;;;;;0.70;0.28;;;13.10;99.90;;;;;;5061851;28;20072;-70
2023/09/15 07:24:48;;;;;;;0.30;0.20;;;13.20;99.90;;;;;;5054041;28;20099;-70
2023/09/15 07:27:13;;;;;;;0.17;0.10;;;13.40;99.90;;;;;;5057499;28;20086;-70
2023/09/15 07:29:39;;;;;;;0.85;0.30;;;13.60;99.90;;;;;;5094545;28;20052;-70
2023/09/15 07:32:06;;;;;;;0.52;0.40;;;13.70;99.90;;;;;;5057608;28;20039;-70
2023/09/15 07:34:32;;;;;;;0.45;0.08;;;13.90;99.90;;;;;;5050850;28;20051;-71
2023/09/15 07:37:00;;;;;;;0.32;0.15;;;14.20;99.90;;;;;;5088096;28;20090;-72
2023/09/15 07:39:26;;;;;;;2.05;0.43;;;14.40;99.90;;;;;;5056646;28;20166;-72
2023/09/15 07:41:52;;;;;;;0.35;0.10;;;14.60;99.90;;;;;;5055203;28;20439;-71
2023/09/15 07:44:17;;;;;;;0.32;0.10;;;14.80;99.90;;;;;;5059075;28;20041;-72
2023/09/15 07:46:43;;;;;;;0.08;0.00;;;15.00;99.90;;;;;;5052622;28;20467;-72
2023/09/15 07:49:09;;;;;;;1.05;0.60;;;15.20;99.90;;;;;;5060856;28;20040;-72
2023/09/15 07:51:35;;;;;;;0.65;0.20;;;15.40;99.90;;;;;;5066101;28;20068;-72
2023/09/15 07:54:01;;;;;;;0.60;0.30;;;15.60;99.90;;;;;;5064144;28;20044;-72
2023/09/15 07:56:26;;;;;;;0.30;0.20;;;15.70;99.90;;;;;;5095242;28;20056;-70
2023/09/15 07:58:52;;;;;;;0.20;0.10;;;15.90;99.90;;;;;;5066836;28;20393;-71
2023/09/15 08:01:18;;;;;;;0.57;0.40;;;16.00;99.90;;;;;;5059212;28;20067;-71
2023/09/15 08:03:45;;;;;;;0.10;0.10;;;16.10;99.90;;;;;;5094348;28;20032;-71
2023/09/15 08:06:11;;;;;;;0.40;0.20;;;16.20;99.90;;;;;;5041451;28;20056;-72
2023/09/15 08:08:37;;;;;;;1.25;0.20;;;16.40;99.90;;;;;;5062061;28;20075;-72
2023/09/15 08:11:03;;;;;;;0.43;0.30;;;16.60;99.90;;;;;;5061707;28;20040;-72
2023/09/15 08:13:29;;;;;;;0.20;0.20;;;17.00;99.90;;;;;;5046173;28;20477;-72
2023/09/15 08:15:55;;;;;;;0.20;0.10;;;17.60;99.90;;;;;;5064855;28;20130;-71
2023/09/15 08:18:22;;;;;;;3.40;0.65;;;18.50;99.90;;;;;;5065343;28;20452;-72
2023/09/15 08:20:48;;;;;;;0.20;0.20;;;19.50;99.90;;;;;;5058845;28;20039;-71
2023/09/15 08:23:13;;;;;;;0.25;0.10;;;20.10;99.90;;;;;;5059650;28;20120;-72
2023/09/15 08:25:40;;;;;;;0.38;0.10;;;20.70;99.90;;;;;;5062448;28;20045;-72
2023/09/15 08:28:06;;;;;;;0.15;0.10;;;21.40;99.90;;;;;;5062529;28;20037;-73
2023/09/15 08:30:37;;;;;;;0.45;0.20;;;22.00;99.90;;;;;;5060620;28;20048;-72
2023/09/15 08:33:05;;;;;;;0.10;0.10;;;22.50;99.90;;;;;;5066937;28;20079;-72
2023/09/15 08:35:30;;;;;;;0.30;0.10;;;22.90;99.90;;;;;;5059883;28;20060;-72
2023/09/15 08:37:56;;;;;;;0.20;0.20;;;23.30;99.90;;;;;;5059173;28;20044;-72
2023/09/15 08:40:22;;;;;;;1.65;0.10;;;23.60;99.90;;;;;;5057360;28;20343;-72
2023/09/15 08:42:48;;;;;;;0.40;0.10;;;23.80;99.90;;;;;;5058225;28;20116;-72
2023/09/15 08:45:14;;;;;;;0.43;0.20;;;23.80;99.90;;;;;;5095117;28;20040;-72
2023/09/15 08:47:45;;;;;;;0.00;0.00;;;23.90;99.90;;;;;;5060057;28;20366;-72
2023/09/15 08:50:11;;;;;;;0.35;0.20;;;24.20;99.90;;;;;;5043951;28;20109;-72
2023/09/15 08:52:38;;;;;;;0.38;0.10;;;24.50;99.90;;;;;;5060715;28;20040;-72
2023/09/15 08:55:04;;;;;;;0.22;0.10;;;24.80;99.90;;;;;;5061683;28;20051;-72
2023/09/15 08:57:30;;;;;;;0.80;0.15;;;25.10;99.90;;;;;;5062409;28;20053;-72
2023/09/15 08:59:57;;;;;;;0.45;0.20;;;25.20;96.70;;;;;;5065708;28;20045;-72
2023/09/15 09:02:24;;;;;;;0.70;0.20;;;25.10;99.80;;;;;;5062397;28;20500;-72
2023/09/15 09:04:50;;;;;;;0.32;0.10;;;25.10;98.20;;;;;;5053904;28;20037;-72
2023/09/15 09:07:16;;;;;;;0.30;0.03;;;25.10;92.50;;;;;;5063207;28;20587;-72
2023/09/15 09:09:44;;;;;;;0.30;0.10;;;25.10;94.70;;;;;;5057147;28;20075;-72
2023/09/15 09:12:10;;;;;;;0.90;0.10;;;25.10;91.30;;;;;;5093215;28;20480;-72
2023/09/15 09:14:36;;;;;;;0.55;0.08;;;25.50;92.60;;;;;;5046423;28;20106;-73
2023/09/15 09:17:03;;;;;;;0.30;0.10;;;25.80;96.70;;;;;;5043514;28;20048;-72
2023/09/15 09:19:39;;;;;;;0.20;0.00;;;25.90;84.60;;;;;;5057619;28;20060;-72
2023/09/15 09:22:07;;;;;;;0.65;0.10;;;26.10;81.30;;;;;;5061124;28;20072;-72
2023/09/15 09:24:34;;;;;;;1.45;0.52;;;26.20;90.90;;;;;;5059003;28;20373;-72
2023/09/15 09:27:00;;;;;;;0.10;0.00;;;26.20;91.70;;;;;;5055767;28;20047;-73
2023/09/15 09:29:27;;;;;;;0.30;0.00;;;26.10;92.90;;;;;;5056661;28;20037;-72
2023/09/15 09:31:53;;;;;;;0.25;0.00;;;26.10;80.00;;;;;;5057302;28;20041;-71
2023/09/15 09:34:19;;;;;;;1.30;0.10;;;26.40;81.10;;;;;;5061484;28;20048;-71
2023/09/15 09:36:49;;;;;;;0.22;0.20;;;26.70;77.30;;;;;;5065322;28;20053;-72
2023/09/15 09:39:15;;;;;;;0.20;0.10;;;26.70;84.10;;;;;;5059635;28;20133;-72
2023/09/15 09:41:43;;;;;;;0.70;0.10;;;26.60;80.30;;;;;;5058247;28;20115;-71
2023/09/15 09:44:10;;;;;;;0.70;0.03;;;26.40;79.40;;;;;;5054438;28;20083;-72
2023/09/15 09:46:36;;;;;;;0.25;0.00;;;26.40;78.30;;;;;;5055607;28;20033;-72
2023/09/15 09:49:03;;;;;;;0.00;0.00;;;26.40;71.80;;;;;;5054520;28;20397;-72
2023/09/15 09:51:29;;;;;;;0.40;0.13;;;26.70;77.60;;;;;;5057868;28;20044;-72
2023/09/15 09:53:55;;;;;;;0.03;0.00;;;26.80;72.70;;;;;;5041736;28;20044;-72
2023/09/15 09:56:22;;;;;;;0.30;0.00;;;26.90;77.90;;;;;;5053635;28;20048;-72
2023/09/15 09:58:48;;;;;;;0.28;0.10;;;27.20;77.90;;;;;;5062002;28;20492;-72
2023/09/15 10:01:14;;;;;;;0.28;0.10;;;27.20;74.60;;;;;;5060924;28;20093;-72
2023/09/15 10:03:40;;;;;;;0.35;0.15;;;27.40;74.60;;;;;;5058679;28;20105;-72
2023/09/15 10:06:08;;;;;;;0.17;0.00;;;27.60;75.20;;;;;;5056855;28;20040;-72
2023/09/15 10:08:35;;;;;;;0.50;0.17;;;27.50;73.90;;;;;;5062831;28;20421;-72
2023/09/15 10:11:04;;;;;;;0.00;0.00;;;27.20;73.30;;;;;;5060272;28;20436;-72
2023/09/15 10:13:32;;;;;;;0.30;0.00;;;26.90;69.00;;;;;;5057042;28;20186;-72
2023/09/15 10:15:57;;;;;;;1.10;0.17;;;27.00;75.60;;;;;;5060356;28;20045;-72
2023/09/15 10:18:24;;;;;;;0.15;0.05;;;27.10;76.40;;;;;;5063742;28;20473;-72
2023/09/15 10:20:54;;;;;;;0.10;0.08;;;26.90;69.10;;;;;;5059465;28;20048;-72
2023/09/15 10:23:20;;;;;;;0.20;0.10;;;26.60;69.30;;;;;;5063219;28;20052;-72
2023/09/15 10:25:51;;;;;;;0.10;0.00;;;26.80;70.50;;;;;;5057473;28;20037;-72
2023/09/15 10:28:17;;;;;;;0.28;0.10;;;27.10;68.30;;;;;;5060334;28;20066;-72
2023/09/15 10:30:43;;;;;;;0.15;0.15;;;27.20;66.30;;;;;;5091908;28;20381;-72
2023/09/15 10:33:10;;;;;;;0.22;0.00;;;27.30;65.70;;;;;;5061734;28;20033;-72
2023/09/15 10:35:45;;;;;;;0.50;0.10;;;27.20;62.20;;;;;;5058046;28;20079;-72
2023/09/15 10:38:11;;;;;;;0.17;0.00;;;26.80;66.80;;;;;;5055687;28;20371;-72
2023/09/15 10:40:50;;;;;;;0.63;0.10;;;26.50;64.50;;;;;;5059249;28;20048;-72
2023/09/15 10:43:17;;;;;;;0.22;0.10;;;26.40;66.90;;;;;;5054360;28;20107;-72
2023/09/15 10:46:02;;;;;;;0.85;0.20;;;26.10;66.50;;;;;;5041052;28;20047;-72
2023/09/15 10:48:47;;;;;;;1.20;0.10;;;26.10;63.60;;;;;;5059302;28;20456;-72
2023/09/15 10:51:18;;;;;;;0.70;0.15;;;26.10;65.90;;;;;;5059232;28;20041;-72
2023/09/15 10:53:56;;;;;;;0.10;0.10;;;25.90;61.50;;;;;;5055285;28;20040;-72
2023/09/15 10:56:22;;;;;;;0.00;0.00;;;26.00;63.20;;;;;;5059711;28;20045;-72
2023/09/15 10:58:48;;;;;;;0.03;0.00;;;26.20;67.60;;;;;;5061021;28;20123;-72
2023/09/15 11:01:15;;;;;;;0.15;0.00;;;26.20;65.50;;;;;;5039313;28;20041;-72
2023/09/15 11:03:41;;;;;;;1.35;0.03;;;26.20;66.60;;;;;;5057530;28;20063;-72
2023/09/15 11:06:15;;;;;;;0.32;0.10;;;26.50;68.00;;;;;;5053682;28;20502;-73
2023/09/15 11:08:41;;;;;;;0.65;0.00;;;26.70;67.30;;;;;;5053820;28;20037;-71
2023/09/15 11:11:10;;;;;;;0.80;0.20;;;26.60;63.20;;;;;;5058863;28;20032;-72
2023/09/15 11:13:40;;;;;;;0.10;0.00;;;26.60;62.30;;;;;;5040826;28;20389;-71
2023/09/15 11:16:08;;;;;;;0.20;0.00;;;26.80;63.80;;;;;;5049201;28;20036;-71
2023/09/15 11:18:35;;;;;;;0.98;0.47;;;26.90;64.30;;;;;;5058110;28;20051;-71
2023/09/15 11:21:01;;;;;;;0.40;0.10;;;26.80;62.30;;;;;;5055136;28;20036;-71
2023/09/15 11:23:28;;;;;;;0.00;0.00;;;26.90;66.40;;;;;;5057073;28;20056;-71
2023/09/15 11:26:06;;;;;;;0.13;0.00;;;27.20;64.30;;;;;;5065932;28;20080;-72
2023/09/15 11:28:35;;;;;;;0.38;0.08;;;26.80;61.60;;;;;;5057134;28;20049;-71
2023/09/15 11:31:06;;;;;;;0.10;0.03;;;26.10;58.70;;;;;;5056806;28;20041;-71
2023/09/15 11:33:32;;;;;;;0.47;0.00;;;25.40;62.80;;;;;;5089697;28;20068;-70
2023/09/15 11:35:57;;;;;;;0.65;0.10;;;25.20;64.90;;;;;;5053805;28;20115;-71
2023/09/15 11:38:26;;;;;;;0.35;0.10;;;25.40;64.80;;;;;;5086530;28;20183;-71
2023/09/15 11:40:53;;;;;;;0.63;0.13;;;25.60;65.90;;;;;;5057929;28;20127;-71
2023/09/15 11:43:23;;;;;;;0.43;0.10;;;26.10;65.50;;;;;;5053400;28;20040;-71
2023/09/15 11:45:52;;;;;;;0.20;0.10;;;26.50;64.50;;;;;;5090977;28;20048;-71
2023/09/15 11:48:21;;;;;;;0.28;0.20;;;26.90;65.50;;;;;;5057829;28;20100;-70
2023/09/15 11:50:47;;;;;;;0.20;0.08;;;27.30;66.60;;;;;;5055407;28;20052;-71
2023/09/15 11:53:21;;;;;;;0.00;0.00;;;27.80;65.20;;;;;;5054715;28;20085;-70
2023/09/15 11:55:51;;;;;;;0.45;0.00;;;28.20;62.50;;;;;;5053130;28;20037;-71
2023/09/15 11:58:18;;;;;;;1.33;0.10;;;28.50;59.70;;;;;;5056714;28;20128;-71
2023/09/15 12:00:44;;;;;;;0.32;0.20;;;28.60;59.70;;;;;;5043299;28;20052;-71
2023/09/15 12:03:09;;;;;;;0.60;0.05;;;28.40;57.50;;;;;;5059806;28;20052;-71
2023/09/15 12:05:35;;;;;;;0.22;0.10;;;28.40;58.20;;;;;;5055332;28;20045;-71
2023/09/15 12:08:02;;;;;;;0.38;0.10;;;28.30;58.50;;;;;;5055233;28;20392;-70
2023/09/15 12:10:29;;;;;;;0.50;0.28;;;27.80;57.60;;;;;;5058580;28;20053;-70
2023/09/15 12:12:59;;;;;;;0.05;0.00;;;27.50;58.90;;;;;;5060321;28;20516;-70
2023/09/15 12:15:26;;;;;;;0.43;0.10;;;27.40;59.40;;;;;;5056023;28;20045;-70
2023/09/15 12:17:52;;;;;;;1.75;0.22;;;27.20;57.60;;;;;;5057546;28;20033;-70
2023/09/15 12:20:23;;;;;;;0.35;0.20;;;26.90;57.70;;;;;;5052661;28;20478;-70
2023/09/15 12:22:49;;;;;;;1.30;0.25;;;26.70;60.20;;;;;;5040928;28;20059;-70
2023/09/15 12:25:16;;;;;;;0.20;0.00;;;27.00;59.70;;;;;;5052959;28;20496;-71
2023/09/15 12:27:42;;;;;;;0.73;0.00;;;27.20;58.70;;;;;;5060178;28;20045;-70
2023/09/15 12:30:10;;;;;;;0.25;0.10;;;27.20;59.80;;;;;;5055344;28;20052;-71
2023/09/15 12:32:37;;;;;;;0.10;0.10;;;27.50;62.90;;;;;;5038189;28;20044;-67
2023/09/15 12:35:08;;;;;;;0.25;0.00;;;27.90;59.50;;;;;;5054537;28;20480;-68
2023/09/15 12:37:38;;;;;;;0.13;0.03;;;28.20;59.20;;;;;;5054736;28;20115;-67
2023/09/15 12:40:04;;;;;;;0.20;0.10;;;28.40;60.00;;;;;;5062594;28;20362;-68
2023/09/15 12:42:30;;;;;;;0.00;0.00;;;28.80;58.20;;;;;;5058500;28;20086;-67
2023/09/15 12:44:56;;;;;;;0.68;0.10;;;29.10;58.50;;;;;;5065277;28;20082;-69
2023/09/15 12:47:21;;;;;;;0.25;0.00;;;29.00;58.70;;;;;;5061781;28;20116;-67